Carolina, West Virginia
Current Conditions -  °F | °C
As of 8:53 AM on Monday 24 Nov 2014 (Local Time) from KCKB Reporting Station
Clear Clear  
Wind Chill: 64°   Ceiling: Unl
Heat Index: 64°   Visibility: 10mi
Dew Point: 49°   Wind: 17mph
Humidity: 58%   Direction: 200°SSW
Pressure: 29.53"   Gusts: 24mph
Location:  39.48°N, 80.27°W
Report Text: KCKB 241353Z 20015G21KT 10SM CLR 18/09 A2953 RMK AO2 SLP988 T01780094
Loading
Personal Weather Stations






























Interactive Weather Map New forecast layout! Learn more

10-Day Weather Forecast

Advertisements
Track Severe Weather on mobile